Enterprise, West Virginia
Current Conditions -  °F | °C
As of 10:53 AM on Wednesday 22 Oct 2014 (Local Time) from KCKB Reporting Station
Overcast Overcast  
Wind Chill: 45°   Ceiling: 1600
Heat Index: 48°   Visibility: 10mi
Dew Point: 43°   Wind: 7mph
Humidity: 83%   Direction: 360°N
Pressure: 30.15"   Gusts: NA
Location:  39.42°N, 80.28°W
Report Text: KCKB 221453Z 36006KT 10SM OVC016 09/06 A3015 RMK AO2 SLP206 T00890061 51017
Loading
Personal Weather Stations






























Interactive Weather Map
Tropical Storm Tracking
New forecast layout! Learn more

10-Day Weather Forecast

Advertisements
Track Severe Weather on mobile